createdAt,value
2022-08-05T00:00:50.956Z,58.63
2022-08-05T00:03:53.048Z,57.95
2022-08-05T00:06:59.835Z,58.34
2022-08-05T00:10:02.288Z,58.83
2022-08-05T00:13:04.667Z,58.89
2022-08-05T00:16:09.314Z,58.82
2022-08-05T00:19:12.954Z,59.09
2022-08-05T00:22:14.726Z,59.91
2022-08-05T00:25:19.776Z,59.34
2022-08-05T00:28:29.628Z,59.72
2022-08-05T00:31:54.494Z,59.36
2022-08-05T00:35:07.737Z,59.08
2022-08-05T00:38:09.871Z,59.38
2022-08-05T00:41:12.120Z,58.87
2022-08-05T00:44:14.215Z,59.12
2022-08-05T00:47:16.446Z,59.44
2022-08-05T00:50:20.913Z,59.01
2022-08-05T00:54:00.110Z,58.39
2022-08-05T00:56:51.306Z,57.93
2022-08-05T00:59:53.669Z,58.64
2022-08-05T01:02:57.186Z,58.41
2022-08-05T01:05:59.168Z,58.39
2022-08-05T01:09:01.046Z,58.40
2022-08-05T01:12:18.411Z,59.32
2022-08-05T01:15:36.027Z,58.62
2022-08-05T01:18:48.189Z,59.58
2022-08-05T01:22:18.960Z,61.03
2022-08-05T01:25:40.096Z,59.92
2022-08-05T01:28:48.913Z,60.70
2022-08-05T01:31:55.467Z,60.22
2022-08-05T01:34:57.957Z,59.57
2022-08-05T01:38:02.326Z,59.77
2022-08-05T01:41:07.069Z,59.41
2022-08-05T01:44:11.303Z,59.90
2022-08-05T01:47:15.871Z,60.33
2022-08-05T01:50:28.509Z,60.19
2022-08-05T01:53:57.252Z,60.14
2022-08-05T01:58:10.380Z,60.55
2022-08-05T02:00:16.558Z,60.94
2022-08-05T02:03:32.106Z,61.17
2022-08-05T02:06:38.615Z,60.92
2022-08-05T02:09:41.085Z,60.92
2022-08-05T02:13:00.808Z,61.60
2022-08-05T02:16:09.481Z,61.13
2022-08-05T02:19:27.493Z,62.33
2022-08-05T02:22:42.517Z,61.61
2022-08-05T02:25:49.552Z,60.73
2022-08-05T02:28:53.079Z,61.23
2022-08-05T02:31:57.675Z,61.08
2022-08-05T02:35:02.144Z,61.06
2022-08-05T02:38:19.506Z,61.12
2022-08-05T02:41:28.806Z,61.85
2022-08-05T02:44:44.830Z,62.15
2022-08-05T02:48:06.654Z,61.60
2022-08-05T02:51:11.348Z,62.45
2022-08-05T02:54:34.890Z,62.85
2022-08-05T02:58:09.248Z,62.23
2022-08-05T03:01:02.548Z,62.18
2022-08-05T03:04:12.310Z,62.24
2022-08-05T03:07:40.407Z,62.04
2022-08-05T03:10:44.781Z,62.72
2022-08-05T03:14:08.090Z,63.22
2022-08-05T03:17:10.771Z,63.24
2022-08-05T03:20:13.378Z,63.45
2022-08-05T03:23:15.810Z,63.23
2022-08-05T03:26:31.755Z,63.29
2022-08-05T03:29:45.796Z,63.27
2022-08-05T03:32:56.847Z,63.09
2022-08-05T03:35:59.251Z,63.95
2022-08-05T03:39:08.221Z,64.67
2022-08-05T03:42:15.016Z,64.24
2022-08-05T03:45:22.669Z,64.33
2022-08-05T03:48:26.569Z,64.19
2022-08-05T03:52:38.732Z,63.77
2022-08-05T03:56:00.949Z,64.98
2022-08-05T03:58:36.231Z,63.00
2022-08-05T04:01:40.831Z,62.92
2022-08-05T04:04:44.876Z,62.60
2022-08-05T04:07:58.525Z,62.27
2022-08-05T04:11:02.121Z,62.06
2022-08-05T04:14:04.617Z,61.83
2022-08-05T04:17:08.970Z,61.77
2022-08-05T04:20:23.178Z,64.12
2022-08-05T04:24:01.099Z,52.82
2022-08-05T04:26:54.321Z,47.40
2022-08-05T04:29:56.317Z,43.08
2022-08-05T04:32:58.179Z,40.27
2022-08-05T04:36:10.945Z,38.04
2022-08-05T04:39:21.938Z,36.83
2022-08-05T04:42:25.547Z,37.02
2022-08-05T04:45:47.791Z,39.56
2022-08-05T04:48:51.600Z,44.85
2022-08-05T04:52:00.397Z,47.81
2022-08-05T04:55:14.899Z,51.05
2022-08-05T04:58:21.501Z,52.53
2022-08-05T05:02:35.656Z,54.19
2022-08-05T05:05:02.404Z,54.56
2022-08-05T05:08:14.500Z,55.89
2022-08-05T05:11:41.440Z,55.43
2022-08-05T05:14:53.663Z,56.52
2022-08-05T05:17:57.882Z,55.92
2022-08-05T05:21:00.171Z,57.27
2022-08-05T05:24:08.929Z,56.18
2022-08-05T05:27:11.306Z,57.07
2022-08-05T05:30:30.790Z,55.87
2022-08-05T05:33:58.934Z,55.10
2022-08-05T05:36:56.019Z,53.88
2022-08-05T05:39:57.869Z,53.17
2022-08-05T05:43:00.785Z,52.94
2022-08-05T05:46:04.094Z,52.80
2022-08-05T05:49:13.526Z,51.47
2022-08-05T05:52:31.360Z,51.33
2022-08-05T05:55:52.013Z,50.33
2022-08-05T05:58:58.443Z,49.74
2022-08-05T06:02:05.697Z,49.82
2022-08-05T06:05:17.000Z,48.29
2022-08-05T06:08:32.654Z,49.14
2022-08-05T06:11:35.325Z,47.71
2022-08-05T06:14:44.453Z,47.50
2022-08-05T06:17:53.613Z,47.40
2022-08-05T06:20:57.372Z,47.16
2022-08-05T06:23:59.918Z,47.53
2022-08-05T06:27:04.018Z,47.40
2022-08-05T06:30:17.674Z,46.46
2022-08-05T06:33:33.434Z,45.60
2022-08-05T06:36:57.065Z,42.40
2022-08-05T06:40:00.507Z,44.72
2022-08-05T06:43:04.636Z,44.96
2022-08-05T06:46:07.323Z,44.24
2022-08-05T06:49:12.130Z,42.53
2022-08-05T06:52:37.650Z,43.68
2022-08-05T06:55:36.684Z,42.76
2022-08-05T06:58:39.175Z,43.54
2022-08-05T07:01:42.557Z,43.68
2022-08-05T07:04:44.525Z,42.34
2022-08-05T07:07:49.359Z,42.87
2022-08-05T07:10:52.967Z,42.55
2022-08-05T07:14:20.202Z,42.17
2022-08-05T07:18:02.123Z,42.44
2022-08-05T07:20:44.747Z,41.13
2022-08-05T07:23:49.209Z,41.23
2022-08-05T07:26:52.900Z,40.46
2022-08-05T07:30:28.013Z,41.12
2022-08-05T07:33:36.983Z,41.61
2022-08-05T07:36:39.530Z,41.10
2022-08-05T07:40:26.285Z,40.72
2022-08-05T07:43:04.894Z,39.84
2022-08-05T07:46:25.541Z,40.56
2022-08-05T07:49:27.937Z,39.43
2022-08-05T07:52:29.857Z,39.07
2022-08-05T07:56:05.646Z,40.26
2022-08-05T07:58:57.412Z,40.42
2022-08-05T08:02:04.178Z,38.65
2022-08-05T08:05:06.227Z,39.34
2022-08-05T08:08:12.416Z,38.92
2022-08-05T08:11:16.042Z,39.12
2022-08-05T08:14:19.071Z,36.94
2022-08-05T08:17:21.690Z,38.77
2022-08-05T08:21:00.472Z,37.71
2022-08-05T08:24:03.163Z,39.41
2022-08-05T08:27:07.446Z,38.13
2022-08-05T08:30:29.554Z,36.60
2022-08-05T08:33:37.448Z,38.83
2022-08-05T08:36:50.143Z,38.39
2022-08-05T08:39:54.510Z,38.54
2022-08-05T08:42:56.899Z,37.22
2022-08-05T08:46:19.487Z,37.56
2022-08-05T08:50:11.319Z,38.00
2022-08-05T08:53:00.728Z,35.93
2022-08-05T08:56:06.052Z,37.43
2022-08-05T08:59:14.830Z,36.93
2022-08-05T09:02:26.876Z,36.74
2022-08-05T09:05:38.965Z,36.33
2022-08-05T09:08:51.109Z,36.49
2022-08-05T09:11:55.362Z,37.44
2022-08-05T09:15:06.723Z,35.29
2022-08-05T09:18:09.781Z,37.84
2022-08-05T09:21:20.913Z,35.69
2022-08-05T09:24:25.703Z,34.80
2022-08-05T09:28:03.915Z,33.90
2022-08-05T09:31:22.831Z,37.90
2022-08-05T09:34:48.474Z,36.87
2022-08-05T09:38:17.207Z,36.55
2022-08-05T09:41:17.574Z,36.96
2022-08-05T09:44:52.175Z,36.25
2022-08-05T09:47:56.499Z,37.51
2022-08-05T09:51:14.890Z,35.95
2022-08-05T09:54:28.904Z,35.09
2022-08-05T09:57:43.234Z,35.16
2022-08-05T10:00:57.165Z,36.79
2022-08-05T10:04:14.152Z,35.53
2022-08-05T10:07:20.227Z,35.90
2022-08-05T10:10:40.257Z,36.31
2022-08-05T10:13:47.728Z,37.14
2022-08-05T10:16:53.584Z,37.00
2022-08-05T10:20:04.563Z,35.65
2022-08-05T10:24:00.033Z,35.96
2022-08-05T10:27:00.431Z,35.83
2022-08-05T10:30:41.155Z,34.71
2022-08-05T10:33:29.793Z,36.09
2022-08-05T10:36:39.944Z,35.78
2022-08-05T10:40:03.138Z,34.39
2022-08-05T10:43:51.065Z,33.82
2022-08-05T10:46:56.629Z,36.05
2022-08-05T10:50:20.862Z,35.24
2022-08-05T10:53:45.185Z,35.35
2022-08-05T10:56:57.924Z,33.30
2022-08-05T11:00:20.073Z,30.73
2022-08-05T11:03:27.155Z,34.42
2022-08-05T11:06:31.341Z,32.05
2022-08-05T11:09:46.206Z,31.73
2022-08-05T11:12:54.998Z,33.88
2022-08-05T11:16:33.907Z,31.65
2022-08-05T11:20:10.449Z,32.04
2022-08-05T11:23:57.083Z,33.12
2022-08-05T11:27:51.645Z,32.60
2022-08-05T11:31:06.138Z,33.81
2022-08-05T11:34:15.091Z,30.31
2022-08-05T11:38:30.972Z,31.57
2022-08-05T11:41:34.758Z,32.72
2022-08-05T11:44:54.043Z,32.81
2022-08-05T11:47:58.117Z,33.18
2022-08-05T11:51:03.756Z,32.32
2022-08-05T11:54:08.262Z,32.67
2022-08-05T11:57:39.360Z,32.33
2022-08-05T12:00:38.515Z,32.87
2022-08-05T12:03:55.625Z,31.24
2022-08-05T12:07:02.746Z,28.65
2022-08-05T12:10:09.263Z,32.27
2022-08-05T12:13:28.020Z,31.80
2022-08-05T12:16:45.356Z,31.56
2022-08-05T12:20:26.718Z,29.26
2022-08-05T12:23:20.663Z,31.41
2022-08-05T12:26:23.959Z,31.47
2022-08-05T12:29:38.764Z,29.72
2022-08-05T12:32:50.334Z,29.04
2022-08-05T12:35:53.047Z,31.24
2022-08-05T12:38:57.698Z,28.99
2022-08-05T12:42:00.814Z,30.97
2022-08-05T12:45:09.402Z,31.10
2022-08-05T12:48:27.202Z,30.52
2022-08-05T12:52:13.552Z,29.71
2022-08-05T12:55:25.165Z,30.01
2022-08-05T12:58:39.161Z,30.68
2022-08-05T13:02:07.647Z,30.03
2022-08-05T13:05:14.471Z,30.66
2022-08-05T13:08:18.709Z,29.87
2022-08-05T13:12:02.600Z,27.79
2022-08-05T13:15:06.728Z,29.04
2022-08-05T13:18:11.055Z,30.36
2022-08-05T13:21:21.006Z,30.56
2022-08-05T13:24:27.787Z,31.05
2022-08-05T13:27:50.285Z,28.97
2022-08-05T13:30:53.355Z,30.09
2022-08-05T13:34:22.600Z,30.15
2022-08-05T13:37:27.224Z,30.47
2022-08-05T13:40:49.964Z,28.44
2022-08-05T13:43:55.692Z,28.28
2022-08-05T13:47:01.649Z,29.54
2022-08-05T13:50:11.304Z,27.41
2022-08-05T13:53:17.106Z,29.26
2022-08-05T13:56:19.664Z,30.47
2022-08-05T13:59:27.020Z,29.79
2022-08-05T14:02:34.883Z,29.35
2022-08-05T14:06:04.977Z,29.95
2022-08-05T14:09:00.524Z,29.92
2022-08-05T14:12:17.657Z,30.12
2022-08-05T14:16:04.560Z,30.11
2022-08-05T14:18:43.655Z,29.98
2022-08-05T14:22:09.500Z,30.11
2022-08-05T14:25:21.499Z,30.47
2022-08-05T14:28:26.690Z,27.42
2022-08-05T14:32:02.188Z,30.07
2022-08-05T14:34:52.757Z,30.32
2022-08-05T14:37:57.115Z,29.82
2022-08-05T14:41:06.563Z,29.77
2022-08-05T14:44:20.489Z,30.02
2022-08-05T14:48:03.700Z,30.16
2022-08-05T14:50:47.513Z,30.23
2022-08-05T14:54:25.960Z,29.66
2022-08-05T14:57:14.089Z,29.77
2022-08-05T15:00:19.999Z,29.42
2022-08-05T15:03:23.499Z,29.99
2022-08-05T15:06:27.940Z,30.23
2022-08-05T15:09:53.727Z,29.98
2022-08-05T15:13:03.325Z,29.34
2022-08-05T15:16:13.092Z,29.26
2022-08-05T15:19:23.447Z,28.89
2022-08-05T15:22:27.024Z,30.07
2022-08-05T15:25:51.484Z,30.28
2022-08-05T15:28:54.416Z,29.57
2022-08-05T15:32:02.368Z,29.81
2022-08-05T15:35:10.821Z,30.37
2022-08-05T15:38:35.648Z,29.62
2022-08-05T15:41:56.091Z,31.00
2022-08-05T15:44:59.719Z,31.07
2022-08-05T15:48:04.062Z,28.52
2022-08-05T15:51:06.484Z,30.48
2022-08-05T15:54:09.326Z,30.27
2022-08-05T15:57:17.942Z,30.96
2022-08-05T16:00:32.640Z,31.32
2022-08-05T16:03:45.229Z,32.08
2022-08-05T16:06:51.962Z,33.04
2022-08-05T16:09:54.873Z,33.26
2022-08-05T16:12:57.353Z,32.74
2022-08-05T16:15:59.716Z,32.04
2022-08-05T16:19:04.690Z,34.92
2022-08-05T16:22:10.747Z,34.69
2022-08-05T16:25:16.534Z,35.41
2022-08-05T16:28:19.598Z,35.48
2022-08-05T16:31:22.340Z,35.73
2022-08-05T16:34:25.326Z,36.07
2022-08-05T16:38:02.783Z,36.24
2022-08-05T16:40:59.769Z,36.13
2022-08-05T16:44:07.655Z,36.29
2022-08-05T16:47:28.908Z,36.21
2022-08-05T16:50:33.189Z,36.83
2022-08-05T16:54:05.394Z,37.02
2022-08-05T16:56:58.923Z,37.59
2022-08-05T17:00:08.603Z,37.04
2022-08-05T17:03:19.593Z,38.20
2022-08-05T17:06:24.692Z,39.16
2022-08-05T17:09:29.510Z,39.76
2022-08-05T17:12:51.439Z,39.38
2022-08-05T17:16:02.792Z,39.98
2022-08-05T17:19:17.931Z,40.20
2022-08-05T17:22:25.512Z,39.47
2022-08-05T17:25:39.469Z,40.02
2022-08-05T17:28:42.809Z,41.01
2022-08-05T17:31:58.403Z,42.14
2022-08-05T17:35:03.240Z,42.29
2022-08-05T17:38:09.925Z,43.07
2022-08-05T17:42:16.822Z,43.12
2022-08-05T17:44:36.381Z,43.33
2022-08-05T17:47:39.560Z,44.71
2022-08-05T17:50:41.985Z,44.48
2022-08-05T17:53:45.258Z,44.54
2022-08-05T17:56:55.143Z,43.85
2022-08-05T18:00:03.772Z,44.08
2022-08-05T18:03:08.146Z,43.92
2022-08-05T18:06:12.332Z,44.10
2022-08-05T18:09:18.982Z,44.22
2022-08-05T18:12:24.444Z,44.64
2022-08-05T18:15:27.788Z,44.53
2022-08-05T18:18:39.692Z,45.63
2022-08-05T18:22:07.667Z,45.40
2022-08-05T18:25:06.752Z,45.82
2022-08-05T18:28:10.467Z,46.15
2022-08-05T18:31:12.970Z,46.42
2022-08-05T18:34:18.083Z,46.83
2022-08-05T18:37:34.667Z,46.79
2022-08-05T18:41:56.549Z,47.09
2022-08-05T18:44:07.761Z,46.78
2022-08-05T18:47:10.548Z,47.21
2022-08-05T18:50:50.103Z,47.45
2022-08-05T18:53:55.367Z,47.49
2022-08-05T18:56:57.853Z,47.15
2022-08-05T19:00:11.636Z,47.68
2022-08-05T19:03:16.027Z,47.38
2022-08-05T19:06:21.905Z,47.57
2022-08-05T19:09:24.572Z,49.91
2022-08-05T19:12:29.492Z,47.39
2022-08-05T19:15:57.677Z,48.30
2022-08-05T19:18:56.820Z,48.13
2022-08-05T19:22:01.351Z,48.07
2022-08-05T19:25:04.049Z,48.44
2022-08-05T19:28:06.618Z,48.60
2022-08-05T19:31:13.575Z,48.60
2022-08-05T19:34:20.337Z,48.65
2022-08-05T19:37:35.117Z,48.92
2022-08-05T19:40:47.708Z,48.41
2022-08-05T19:44:05.887Z,48.77
2022-08-05T19:47:15.057Z,48.87
2022-08-05T19:50:20.495Z,49.27
2022-08-05T19:54:03.614Z,49.79
2022-08-05T19:56:50.052Z,50.01
2022-08-05T19:59:59.332Z,50.23
2022-08-05T20:03:13.554Z,50.58
2022-08-05T20:06:29.368Z,50.40
2022-08-05T20:09:53.969Z,50.38
2022-08-05T20:12:55.311Z,50.23
2022-08-05T20:15:57.940Z,51.44
2022-08-05T20:19:00.914Z,51.47
2022-08-05T20:22:03.559Z,51.21
2022-08-05T20:25:08.514Z,50.68
2022-08-05T20:28:13.579Z,51.22
2022-08-05T20:31:21.647Z,51.29
2022-08-05T20:34:25.103Z,51.16
2022-08-05T20:38:06.405Z,51.08
2022-08-05T20:40:51.920Z,50.96
2022-08-05T20:43:59.736Z,50.76
2022-08-05T20:47:07.587Z,51.08
2022-08-05T20:50:11.498Z,51.29
2022-08-05T20:53:16.064Z,50.98
2022-08-05T20:56:42.146Z,50.76
2022-08-05T21:00:11.121Z,50.81
2022-08-05T21:03:08.146Z,51.00
2022-08-05T21:06:28.189Z,51.77
2022-08-05T21:09:32.240Z,52.41
2022-08-05T21:12:38.428Z,52.54
2022-08-05T21:15:50.947Z,52.78
2022-08-05T21:18:53.513Z,52.10
2022-08-05T21:21:58.089Z,51.30
2022-08-05T21:25:00.186Z,52.71
2022-08-05T21:28:03.514Z,52.44
2022-08-05T21:31:06.922Z,52.96
2022-08-05T21:34:10.416Z,52.94
2022-08-05T21:37:13.395Z,52.30
2022-08-05T21:40:16.649Z,51.47
2022-08-05T21:43:24.698Z,51.96
2022-08-05T21:46:27.057Z,52.66
2022-08-05T21:49:56.508Z,52.36
2022-08-05T21:52:58.929Z,53.05
2022-08-05T21:56:16.759Z,53.93
2022-08-05T21:59:24.307Z,53.58
2022-08-05T22:02:32.104Z,53.61
2022-08-05T22:05:48.061Z,53.66
2022-08-05T22:08:52.898Z,53.23
2022-08-05T22:11:55.304Z,53.65
2022-08-05T22:14:58.865Z,54.37
2022-08-05T22:18:03.098Z,53.93
2022-08-05T22:21:05.099Z,53.45
2022-08-05T22:24:52.504Z,53.61
2022-08-05T22:28:10.224Z,54.25
2022-08-05T22:31:13.482Z,54.55
2022-08-05T22:34:25.396Z,54.24
2022-08-05T22:37:59.071Z,53.54
2022-08-05T22:40:54.994Z,54.15
2022-08-05T22:43:59.675Z,53.54
2022-08-05T22:47:05.000Z,54.33
2022-08-05T22:50:20.000Z,54.43
2022-08-05T22:53:26.761Z,54.13
2022-08-05T22:56:40.071Z,54.81
2022-08-05T22:59:51.808Z,55.15
2022-08-05T23:02:56.472Z,54.38
2022-08-05T23:06:00.321Z,53.70
2022-08-05T23:09:14.639Z,53.39
2022-08-05T23:12:28.448Z,53.98
2022-08-05T23:15:35.151Z,54.24
2022-08-05T23:18:38.553Z,55.01
2022-08-05T23:21:42.821Z,55.34
2022-08-05T23:24:51.094Z,55.34
2022-08-05T23:28:00.158Z,55.33
2022-08-05T23:31:16.933Z,55.22
2022-08-05T23:34:24.728Z,58.48
2022-08-05T23:37:34.244Z,55.80
2022-08-05T23:40:40.429Z,55.30
2022-08-05T23:44:06.385Z,56.32
2022-08-05T23:47:15.089Z,56.66
2022-08-05T23:50:20.227Z,56.17
2022-08-05T23:53:23.339Z,56.75
2022-08-05T23:56:30.507Z,57.09
